createdAt,value
2023-01-20T00:01:12.238Z,99165.88
2023-01-20T00:03:40.159Z,99165.09
2023-01-20T00:06:07.133Z,99170.31
2023-01-20T00:08:33.679Z,99177.19
2023-01-20T00:11:04.558Z,99178.97
2023-01-20T00:13:31.336Z,99179.78
2023-01-20T00:15:57.645Z,99169.44
2023-01-20T00:18:23.985Z,99166.88
2023-01-20T00:20:50.318Z,99164.25
2023-01-20T00:23:16.701Z,99172.00
2023-01-20T00:25:43.019Z,99170.34
2023-01-20T00:28:09.508Z,99167.75
2023-01-20T00:30:36.329Z,99169.53
2023-01-20T00:33:02.759Z,99174.72
2023-01-20T00:35:29.061Z,99179.16
2023-01-20T00:37:55.380Z,99182.66
2023-01-20T00:40:21.814Z,99174.09
2023-01-20T00:42:48.154Z,99194.94
2023-01-20T00:45:14.910Z,99190.66
2023-01-20T00:47:41.466Z,99192.47
2023-01-20T00:50:08.352Z,99202.00
2023-01-20T00:52:34.675Z,99203.81
2023-01-20T00:55:01.023Z,99201.22
2023-01-20T00:57:27.340Z,99203.84
2023-01-20T00:59:54.199Z,99209.88
2023-01-20T01:02:20.548Z,99207.28
2023-01-20T01:04:50.876Z,99212.59
2023-01-20T01:07:18.388Z,99203.91
2023-01-20T01:09:44.670Z,99213.44
2023-01-20T01:12:11.074Z,99212.59
2023-01-20T01:14:37.392Z,99210.88
2023-01-20T01:17:03.896Z,99205.69
2023-01-20T01:19:30.286Z,99218.69
2023-01-20T01:21:56.631Z,99221.22
2023-01-20T01:24:23.045Z,99213.47
2023-01-20T01:26:49.366Z,99225.59
2023-01-20T01:29:15.680Z,99229.03
2023-01-20T01:31:42.511Z,99233.28
2023-01-20T01:34:08.841Z,99235.88
2023-01-20T01:36:35.208Z,99241.03
2023-01-20T01:39:01.540Z,99237.47
2023-01-20T01:41:27.965Z,99246.09
2023-01-20T01:44:10.219Z,99245.25
2023-01-20T01:46:37.259Z,99247.72
2023-01-20T01:49:15.562Z,99246.03
2023-01-20T01:51:48.199Z,99249.41
2023-01-20T01:54:22.562Z,99251.16
2023-01-20T01:56:50.792Z,99248.47
2023-01-20T01:59:18.550Z,99248.47
2023-01-20T02:01:49.483Z,99256.31
2023-01-20T02:04:33.325Z,99257.16
2023-01-20T02:07:10.150Z,99258.91
2023-01-20T02:09:37.673Z,99255.34
2023-01-20T02:12:09.072Z,99263.16
2023-01-20T02:14:42.900Z,99258.03
2023-01-20T02:17:25.614Z,99256.25
2023-01-20T02:20:00.638Z,99258.84
2023-01-20T02:22:37.771Z,99262.28
2023-01-20T02:25:14.760Z,99260.50
2023-01-20T02:27:59.531Z,99260.47
2023-01-20T02:30:28.792Z,99267.25
2023-01-20T02:35:53.172Z,99274.28
2023-01-20T02:38:28.581Z,99273.28
2023-01-20T02:40:59.737Z,99278.53
2023-01-20T02:43:50.794Z,99275.09
2023-01-20T02:46:34.831Z,99280.25
2023-01-20T02:49:08.428Z,99285.41
2023-01-20T02:52:00.326Z,99287.28
2023-01-20T02:54:30.417Z,99285.41
2023-01-20T02:56:59.905Z,99285.41
2023-01-20T02:59:32.956Z,99291.50
2023-01-20T03:02:10.178Z,99283.72
2023-01-20T03:04:43.750Z,99297.53
2023-01-20T03:07:13.857Z,99293.22
2023-01-20T03:09:50.739Z,99296.72
2023-01-20T03:12:24.441Z,99304.41
2023-01-20T03:14:52.301Z,99308.75
2023-01-20T03:17:20.053Z,99311.38
2023-01-20T03:19:46.931Z,99309.53
2023-01-20T03:22:13.825Z,99315.59
2023-01-20T03:24:43.005Z,99318.16
2023-01-20T03:27:11.536Z,99322.44
2023-01-20T03:29:38.133Z,99318.94
2023-01-20T03:32:07.268Z,99318.94
2023-01-20T03:34:37.983Z,99324.09
2023-01-20T03:37:05.477Z,99317.03
2023-01-20T03:39:32.985Z,99329.16
2023-01-20T03:42:25.155Z,99330.00
2023-01-20T03:45:16.963Z,99328.16
2023-01-20T03:47:58.700Z,99320.25
2023-01-20T03:50:43.515Z,99338.41
2023-01-20T03:53:31.919Z,99334.16
2023-01-20T03:56:06.207Z,99335.00
2023-01-20T03:58:37.595Z,99346.19
2023-01-20T04:01:18.079Z,99340.16
2023-01-20T04:03:48.934Z,99347.00
2023-01-20T04:06:18.020Z,99345.19
2023-01-20T04:08:49.167Z,99344.28
2023-01-20T04:11:15.816Z,99345.06
2023-01-20T04:13:42.380Z,99342.34
2023-01-20T04:16:18.296Z,99342.34
2023-01-20T04:18:50.289Z,99343.16
2023-01-20T04:21:24.259Z,99350.00
2023-01-20T04:24:23.173Z,99345.69
2023-01-20T04:26:49.643Z,99342.16
2023-01-20T04:29:16.109Z,99345.66
2023-01-20T04:31:42.642Z,99347.41
2023-01-20T04:34:13.881Z,99350.94
2023-01-20T04:36:40.357Z,99344.84
2023-01-20T04:39:07.073Z,99337.94
2023-01-20T04:41:33.655Z,99345.75
2023-01-20T04:44:00.131Z,99354.47
2023-01-20T04:46:26.772Z,99354.47
2023-01-20T04:48:53.225Z,99351.91
2023-01-20T04:51:19.798Z,99356.25
2023-01-20T04:53:46.351Z,99362.31
2023-01-20T04:56:14.181Z,99363.16
2023-01-20T04:58:41.407Z,99370.06
2023-01-20T05:01:08.969Z,99370.91
2023-01-20T05:03:36.402Z,99368.31
2023-01-20T05:06:03.186Z,99374.38
2023-01-20T05:08:29.702Z,99370.06
2023-01-20T05:10:56.284Z,99373.50
2023-01-20T05:13:22.920Z,99374.41
2023-01-20T05:15:49.506Z,99378.75
2023-01-20T05:18:15.986Z,99377.91
2023-01-20T05:20:48.054Z,99386.69
2023-01-20T05:23:15.498Z,99384.06
2023-01-20T05:25:42.062Z,99383.22
2023-01-20T05:28:08.742Z,99385.84
2023-01-20T05:30:35.238Z,99384.16
2023-01-20T05:33:01.771Z,99387.69
2023-01-20T05:35:28.556Z,99391.09
2023-01-20T05:37:55.557Z,99393.72
2023-01-20T05:40:22.264Z,99393.72
2023-01-20T05:42:48.823Z,99399.78
2023-01-20T05:45:15.783Z,99392.88
2023-01-20T05:47:42.387Z,99390.22
2023-01-20T05:50:09.611Z,99399.78
2023-01-20T05:52:36.049Z,99401.47
2023-01-20T05:55:02.626Z,99396.31
2023-01-20T05:57:29.059Z,99400.69
2023-01-20T06:00:01.350Z,99408.47
2023-01-20T06:02:30.907Z,99408.53
2023-01-20T06:04:57.517Z,99408.47
2023-01-20T06:07:24.075Z,99411.13
2023-01-20T06:09:50.545Z,99428.44
2023-01-20T06:12:16.984Z,99422.34
2023-01-20T06:14:43.513Z,99422.34
2023-01-20T06:17:10.891Z,99424.09
2023-01-20T06:19:37.419Z,99438.78
2023-01-20T06:22:03.825Z,99440.47
2023-01-20T06:24:30.416Z,99443.06
2023-01-20T06:26:56.904Z,99449.97
2023-01-20T06:29:23.489Z,99444.78
2023-01-20T06:31:49.961Z,99451.69
2023-01-20T06:34:16.523Z,99449.97
2023-01-20T06:36:42.964Z,99456.03
2023-01-20T06:39:09.458Z,99461.19
2023-01-20T06:41:36.044Z,99460.38
2023-01-20T06:44:02.552Z,99458.69
2023-01-20T06:46:29.255Z,99465.66
2023-01-20T06:49:00.412Z,99469.13
2023-01-20T06:51:29.103Z,99467.47
2023-01-20T06:53:56.120Z,99477.06
2023-01-20T06:56:23.616Z,99480.53
2023-01-20T06:58:50.600Z,99485.69
2023-01-20T07:01:23.830Z,99487.47
2023-01-20T07:03:50.551Z,99487.34
2023-01-20T07:06:29.939Z,99490.81
2023-01-20T07:08:58.782Z,99493.31
2023-01-20T07:11:26.279Z,99491.50
2023-01-20T07:13:52.933Z,99488.91
2023-01-20T07:16:19.453Z,99491.50
2023-01-20T07:18:52.030Z,99497.66
2023-01-20T07:21:18.711Z,99500.22
2023-01-20T07:23:45.539Z,99507.13
2023-01-20T07:26:15.687Z,99505.47
2023-01-20T07:28:42.704Z,99510.66
2023-01-20T07:31:11.770Z,99509.81
2023-01-20T07:33:38.423Z,99509.81
2023-01-20T07:36:07.065Z,99508.09
2023-01-20T07:38:34.208Z,99509.81
2023-01-20T07:41:04.659Z,99514.16
2023-01-20T07:43:32.055Z,99527.13
2023-01-20T07:46:00.287Z,99528.09
2023-01-20T07:48:30.173Z,99536.69
2023-01-20T07:51:03.039Z,99537.63
2023-01-20T07:53:29.780Z,99540.19
2023-01-20T07:55:56.358Z,99541.78
2023-01-20T07:58:22.865Z,99547.91
2023-01-20T08:00:49.446Z,99547.03
2023-01-20T08:03:16.334Z,99544.44
2023-01-20T08:05:42.965Z,99553.09
2023-01-20T08:08:09.470Z,99556.53
2023-01-20T08:10:36.148Z,99555.63
2023-01-20T08:13:02.657Z,99559.97
2023-01-20T08:15:29.176Z,99559.88
2023-01-20T08:17:56.283Z,99565.06
2023-01-20T08:20:23.279Z,99553.81
2023-01-20T08:22:51.470Z,99559.84
2023-01-20T08:25:17.949Z,99565.06
2023-01-20T08:27:44.541Z,99565.91
2023-01-20T08:30:11.566Z,99571.16
2023-01-20T08:32:38.151Z,99566.84
2023-01-20T08:35:05.529Z,99582.50
2023-01-20T08:37:31.918Z,99573.00
2023-01-20T08:39:58.513Z,99578.25
2023-01-20T08:42:24.947Z,99574.75
2023-01-20T08:44:53.288Z,99580.03
2023-01-20T08:47:19.767Z,99589.56
2023-01-20T08:49:46.500Z,99599.97
2023-01-20T08:52:13.019Z,99602.56
2023-01-20T08:54:39.600Z,99602.56
2023-01-20T08:57:06.044Z,99602.56
2023-01-20T08:59:32.539Z,99606.00
2023-01-20T09:01:59.072Z,99612.97
2023-01-20T09:04:25.613Z,99614.72
2023-01-20T09:06:52.884Z,99615.59
2023-01-20T09:09:22.235Z,99615.66
2023-01-20T09:11:52.437Z,99618.22
2023-01-20T09:14:20.670Z,99623.47
2023-01-20T09:16:48.476Z,99626.84
2023-01-20T09:19:15.018Z,99625.06
2023-01-20T09:21:42.858Z,99637.19
2023-01-20T09:24:09.718Z,99636.19
2023-01-20T09:26:39.169Z,99645.63
2023-01-20T09:29:10.259Z,99649.03
2023-01-20T09:31:38.800Z,99648.94
2023-01-20T09:34:05.612Z,99648.84
2023-01-20T09:36:33.776Z,99651.41
2023-01-20T09:39:19.334Z,99662.53
2023-01-20T09:42:08.277Z,99668.53
2023-01-20T09:44:48.531Z,99666.69
2023-01-20T09:47:47.559Z,99671.88
2023-01-20T09:50:37.567Z,99673.38
2023-01-20T09:53:15.446Z,99679.44
2023-01-20T09:55:48.093Z,99679.38
2023-01-20T09:58:37.478Z,99686.28
2023-01-20T10:01:18.299Z,99684.38
2023-01-20T10:04:05.960Z,99693.00
2023-01-20T10:06:39.595Z,99684.22
2023-01-20T10:09:21.250Z,99692.88
2023-01-20T10:11:49.591Z,99691.00
2023-01-20T10:14:21.555Z,99691.88
2023-01-20T10:17:13.945Z,99692.75
2023-01-20T10:20:13.489Z,99697.78
2023-01-20T10:22:50.496Z,99702.88
2023-01-20T10:25:21.072Z,99698.38
2023-01-20T10:27:55.686Z,99698.28
2023-01-20T10:30:26.428Z,99699.00
2023-01-20T10:33:02.200Z,99692.84
2023-01-20T10:35:33.431Z,99697.00
2023-01-20T10:38:00.292Z,99694.22
2023-01-20T10:40:41.159Z,99703.78
2023-01-20T10:43:14.166Z,99700.09
2023-01-20T10:45:46.465Z,99701.72
2023-01-20T10:48:25.014Z,99696.41
2023-01-20T10:51:03.680Z,99705.13
2023-01-20T10:53:34.744Z,99702.53
2023-01-20T10:56:04.181Z,99706.00
2023-01-20T10:58:35.864Z,99706.84
2023-01-20T11:01:10.031Z,99703.41
2023-01-20T11:03:40.764Z,99708.53
2023-01-20T11:06:15.035Z,99703.22
2023-01-20T11:08:44.342Z,99704.06
2023-01-20T11:11:19.687Z,99706.56
2023-01-20T11:13:46.765Z,99709.91
2023-01-20T11:16:19.098Z,99709.91
2023-01-20T11:19:07.450Z,99713.31
2023-01-20T11:21:36.962Z,99719.22
2023-01-20T11:24:32.546Z,99721.88
2023-01-20T11:27:11.354Z,99726.22
2023-01-20T11:29:45.020Z,99735.69
2023-01-20T11:32:29.657Z,99737.47
2023-01-20T11:34:57.900Z,99733.06
2023-01-20T11:37:39.609Z,99734.03
2023-01-20T11:40:27.859Z,99739.34
2023-01-20T11:42:55.154Z,99740.13
2023-01-20T11:45:27.771Z,99734.22
2023-01-20T11:48:11.059Z,99738.69
2023-01-20T11:50:48.041Z,99743.03
2023-01-20T11:53:21.191Z,99743.94
2023-01-20T11:56:12.254Z,99744.88
2023-01-20T11:59:18.151Z,99747.44
2023-01-20T12:01:51.489Z,99746.44
2023-01-20T12:04:45.973Z,99747.25
2023-01-20T12:07:18.640Z,99754.16
2023-01-20T12:09:49.110Z,99746.41
2023-01-20T12:12:40.175Z,99745.66
2023-01-20T12:15:14.569Z,99753.41
2023-01-20T12:17:53.517Z,99750.88
2023-01-20T12:20:35.470Z,99753.56
2023-01-20T12:23:24.837Z,99762.38
2023-01-20T12:25:57.691Z,99775.34
2023-01-20T12:28:31.291Z,99771.03
2023-01-20T12:31:06.327Z,99762.44
2023-01-20T12:33:35.680Z,99771.84
2023-01-20T12:36:33.424Z,99774.41
2023-01-20T12:39:29.260Z,99774.28
2023-01-20T12:42:07.311Z,99778.47
2023-01-20T12:44:52.233Z,99782.78
2023-01-20T12:47:46.785Z,99787.03
2023-01-20T12:50:24.001Z,99780.09
2023-01-20T12:53:31.103Z,99786.16
2023-01-20T12:56:17.643Z,99788.78
2023-01-20T12:59:21.530Z,99790.56
2023-01-20T13:02:10.182Z,99787.81
2023-01-20T13:04:58.069Z,99793.97
2023-01-20T13:07:30.606Z,99797.38
2023-01-20T13:10:16.522Z,99799.97
2023-01-20T13:13:00.535Z,99802.50
2023-01-20T13:15:32.923Z,99805.81
2023-01-20T13:18:31.563Z,99805.78
2023-01-20T13:20:58.001Z,99809.00
2023-01-20T13:23:28.500Z,99818.47
2023-01-20T13:25:55.843Z,99811.34
2023-01-20T13:28:25.850Z,99811.16
2023-01-20T13:30:55.036Z,99811.81
2023-01-20T13:33:37.925Z,99819.47
2023-01-20T13:36:22.254Z,99811.47
2023-01-20T13:38:51.113Z,99818.28
2023-01-20T13:41:51.564Z,99825.28
2023-01-20T13:44:42.159Z,99827.13
2023-01-20T13:47:11.044Z,99830.47
2023-01-20T13:49:46.516Z,99830.59
2023-01-20T13:52:13.269Z,99832.25
2023-01-20T13:54:44.863Z,99838.44
2023-01-20T13:57:23.160Z,99839.38
2023-01-20T13:59:50.526Z,99839.34
2023-01-20T14:02:21.905Z,99849.03
2023-01-20T14:04:49.174Z,99857.69
2023-01-20T14:07:32.945Z,99853.47
2023-01-20T14:10:01.231Z,99851.63
2023-01-20T14:12:29.344Z,99855.59
2023-01-20T14:14:55.948Z,99856.50
2023-01-20T14:17:24.423Z,99860.22
2023-01-20T14:19:54.494Z,99857.69
2023-01-20T14:22:26.498Z,99869.09
2023-01-20T14:24:57.372Z,99870.28
2023-01-20T14:27:27.125Z,99871.75
2023-01-20T14:29:55.605Z,99876.19
2023-01-20T14:32:30.568Z,99882.88
2023-01-20T14:34:57.557Z,99885.38
2023-01-20T14:37:32.722Z,99889.16
2023-01-20T14:40:11.265Z,99900.09
2023-01-20T14:42:41.049Z,99906.44
2023-01-20T14:45:21.661Z,99908.91
2023-01-20T14:47:49.738Z,99912.81
2023-01-20T14:50:18.440Z,99913.41
2023-01-20T14:52:46.118Z,99923.56
2023-01-20T14:55:44.215Z,99927.84
2023-01-20T14:58:17.425Z,99931.00
2023-01-20T15:00:51.558Z,99934.97
2023-01-20T15:03:28.390Z,99942.59
2023-01-20T15:06:10.792Z,99947.44
2023-01-20T15:08:37.259Z,99955.56
2023-01-20T15:11:18.811Z,99956.19
2023-01-20T15:13:51.279Z,99960.84
2023-01-20T15:16:49.199Z,99961.22
2023-01-20T15:19:20.472Z,99963.91
2023-01-20T15:21:49.156Z,99970.22
2023-01-20T15:24:20.369Z,99977.34
2023-01-20T15:26:49.839Z,99983.53
2023-01-20T15:29:24.932Z,99992.47
2023-01-20T15:31:52.185Z,99991.63
2023-01-20T15:34:21.106Z,99996.97
2023-01-20T15:36:48.936Z,100000.59
2023-01-20T15:39:21.641Z,100006.81
2023-01-20T15:41:48.717Z,100009.53
2023-01-20T15:44:15.629Z,100014.06
2023-01-20T15:46:42.257Z,100015.09
2023-01-20T15:49:13.019Z,100028.31
2023-01-20T15:51:42.702Z,100026.75
2023-01-20T15:54:10.258Z,100043.38
2023-01-20T15:56:40.169Z,100036.63
2023-01-20T15:59:18.510Z,100040.25
2023-01-20T16:01:49.898Z,100047.22
2023-01-20T16:04:17.612Z,100048.22
2023-01-20T16:06:44.700Z,100050.91
2023-01-20T16:09:25.722Z,100066.72
2023-01-20T16:11:52.237Z,100073.63
2023-01-20T16:14:19.813Z,100077.19
2023-01-20T16:16:46.261Z,100078.13
2023-01-20T16:19:14.460Z,100081.66
2023-01-20T16:21:41.957Z,100090.31
2023-01-20T16:24:09.541Z,100095.53
2023-01-20T16:26:36.228Z,100096.38
2023-01-20T16:29:04.706Z,100106.81
2023-01-20T16:31:32.416Z,100110.25
2023-01-20T16:33:59.150Z,100113.72
2023-01-20T16:36:25.510Z,100115.41
2023-01-20T16:38:52.969Z,100113.69
2023-01-20T16:41:28.591Z,100117.19
2023-01-20T16:43:55.612Z,100127.47
2023-01-20T16:46:25.731Z,100124.88
2023-01-20T16:48:54.419Z,100149.19
2023-01-20T16:51:23.245Z,100145.72
2023-01-20T16:53:49.682Z,100144.00
2023-01-20T16:56:18.377Z,100146.59
2023-01-20T16:58:47.418Z,100152.66
2023-01-20T17:01:14.054Z,100153.50
2023-01-20T17:03:42.113Z,100153.50
2023-01-20T17:06:14.207Z,100174.34
2023-01-20T17:08:50.139Z,100182.19
2023-01-20T17:11:18.333Z,100178.66
2023-01-20T17:13:45.118Z,100188.22
2023-01-20T17:16:11.672Z,100190.81
2023-01-20T17:18:38.104Z,100193.44
2023-01-20T17:21:06.157Z,100199.50
2023-01-20T17:23:33.757Z,100203.84
2023-01-20T17:26:04.874Z,100207.34
2023-01-20T17:28:31.633Z,100209.88
2023-01-20T17:31:07.042Z,100212.50
2023-01-20T17:33:33.861Z,100222.81
2023-01-20T17:36:02.876Z,100217.59
2023-01-20T17:38:30.796Z,100217.59
2023-01-20T17:41:04.068Z,100226.28
2023-01-20T17:43:34.899Z,100221.94
2023-01-20T17:46:01.988Z,100227.97
2023-01-20T17:48:28.472Z,100232.34
2023-01-20T17:50:59.174Z,100233.19
2023-01-20T17:53:26.661Z,100237.50
2023-01-20T17:56:03.011Z,100244.47
2023-01-20T17:58:37.640Z,100247.94
2023-01-20T18:01:10.419Z,100261.06
2023-01-20T18:03:38.872Z,100261.88
2023-01-20T18:06:10.907Z,100274.09
2023-01-20T18:08:38.266Z,100269.75
2023-01-20T18:11:06.402Z,100268.94
2023-01-20T18:13:32.954Z,100281.13
2023-01-20T18:16:10.709Z,100281.22
2023-01-20T18:18:41.603Z,100277.72
2023-01-20T18:21:19.843Z,100282.16
2023-01-20T18:23:47.425Z,100295.09
2023-01-20T18:26:16.171Z,100295.19
2023-01-20T18:28:42.916Z,100292.63
2023-01-20T18:31:12.531Z,100301.31
2023-01-20T18:33:44.049Z,100302.22
2023-01-20T18:36:14.880Z,100298.81
2023-01-20T18:38:45.012Z,100299.75
2023-01-20T18:41:13.868Z,100300.75
2023-01-20T18:43:41.157Z,100304.34
2023-01-20T18:46:09.324Z,100303.63
2023-01-20T18:48:39.607Z,100311.63
2023-01-20T18:51:07.426Z,100304.78
2023-01-20T18:53:34.024Z,100319.69
2023-01-20T18:56:01.617Z,100319.84
2023-01-20T18:58:28.801Z,100324.31
2023-01-20T19:01:05.943Z,100339.22
2023-01-20T19:03:32.753Z,100339.28
2023-01-20T19:06:07.727Z,100338.56
2023-01-20T19:08:34.688Z,100342.13
2023-01-20T19:11:02.481Z,100353.47
2023-01-20T19:13:28.969Z,100355.28
2023-01-20T19:15:55.760Z,100363.19
2023-01-20T19:18:22.331Z,100364.09
2023-01-20T19:20:48.792Z,100371.94
2023-01-20T19:23:15.358Z,100373.75
2023-01-20T19:25:41.838Z,100379.00
2023-01-20T19:28:09.326Z,100379.03
2023-01-20T19:30:40.321Z,100385.16
2023-01-20T19:33:11.981Z,100390.41
2023-01-20T19:35:40.505Z,100393.88
2023-01-20T19:38:08.354Z,100399.09
2023-01-20T19:40:34.882Z,100393.06
2023-01-20T19:43:01.717Z,100402.63
2023-01-20T19:47:57.124Z,100405.31
2023-01-20T19:50:23.565Z,100409.66
2023-01-20T19:52:49.930Z,100410.56
2023-01-20T19:55:16.420Z,100414.06
2023-01-20T19:57:42.765Z,100421.91
2023-01-20T20:00:10.018Z,100432.31
2023-01-20T20:02:36.419Z,100431.50
2023-01-20T20:05:02.945Z,100437.59
2023-01-20T20:07:29.339Z,100447.13
2023-01-20T20:09:55.712Z,100448.06
2023-01-20T20:12:22.080Z,100448.94
2023-01-20T20:14:48.469Z,100447.28
2023-01-20T20:17:14.920Z,100458.56
2023-01-20T20:19:41.296Z,100452.50
2023-01-20T20:22:07.843Z,100449.09
2023-01-20T20:24:34.227Z,100455.16
2023-01-20T20:27:00.594Z,100460.38
2023-01-20T20:29:27.895Z,100463.88
2023-01-20T20:31:54.248Z,100467.38
2023-01-20T20:34:20.684Z,100472.59
2023-01-20T20:36:47.259Z,100475.22
2023-01-20T20:39:15.917Z,100482.19
2023-01-20T20:41:43.097Z,100476.97
2023-01-20T20:44:10.277Z,100478.72
2023-01-20T20:46:37.089Z,100486.53
2023-01-20T20:49:03.751Z,100487.44
2023-01-20T20:51:32.891Z,100482.28
2023-01-20T20:54:01.455Z,100484.03
2023-01-20T20:56:31.354Z,100484.03
2023-01-20T20:59:02.247Z,100493.56
2023-01-20T21:01:31.228Z,100499.66
2023-01-20T21:03:57.956Z,100497.94
2023-01-20T21:06:25.471Z,100503.19
2023-01-20T21:08:52.623Z,100500.63
2023-01-20T21:11:20.093Z,100506.69
2023-01-20T21:13:49.032Z,100509.34
2023-01-20T21:16:17.745Z,100511.94
2023-01-20T21:18:44.192Z,100510.22
2023-01-20T21:21:13.150Z,100519.78
2023-01-20T21:23:42.854Z,100524.16
2023-01-20T21:26:12.903Z,100530.19
2023-01-20T21:28:40.766Z,100536.28
2023-01-20T21:31:11.847Z,100533.72
2023-01-20T21:33:42.220Z,100540.69
2023-01-20T21:36:12.141Z,100545.03
2023-01-20T21:38:46.366Z,100552.88
2023-01-20T21:41:14.513Z,100551.13
2023-01-20T21:44:01.197Z,100563.28
2023-01-20T21:46:29.235Z,100557.25
2023-01-20T21:49:14.203Z,100557.28
2023-01-20T21:51:59.465Z,100569.41
2023-01-20T21:54:32.284Z,100567.72
2023-01-20T21:56:59.947Z,100576.41
2023-01-20T21:59:26.843Z,100576.41
2023-01-20T22:01:53.824Z,100578.19
2023-01-20T22:04:20.307Z,100581.69
2023-01-20T22:06:46.736Z,100582.53
2023-01-20T22:09:13.228Z,100584.31
2023-01-20T22:11:39.637Z,100595.59
2023-01-20T22:14:06.067Z,100596.47
2023-01-20T22:16:32.548Z,100602.56
2023-01-20T22:18:59.183Z,100599.97
2023-01-20T22:21:26.284Z,100608.66
2023-01-20T22:23:53.543Z,100624.25
2023-01-20T22:26:20.138Z,100618.19
2023-01-20T22:28:46.510Z,100622.53
2023-01-20T22:31:17.182Z,100619.97
2023-01-20T22:33:43.753Z,100624.31
2023-01-20T22:36:10.168Z,100638.16
2023-01-20T22:38:36.553Z,100634.72
2023-01-20T22:41:05.085Z,100639.94
2023-01-20T22:43:31.635Z,100633.84
2023-01-20T22:45:59.782Z,100648.59
2023-01-20T22:48:26.222Z,100652.91
2023-01-20T22:50:54.495Z,100655.56
2023-01-20T22:53:21.009Z,100652.09
2023-01-20T22:56:00.330Z,100661.59
2023-01-20T22:58:27.109Z,100661.63
2023-01-20T23:00:53.618Z,100660.78
2023-01-20T23:03:20.084Z,100667.72
2023-01-20T23:05:58.189Z,100665.16
2023-01-20T23:08:26.778Z,100671.22
2023-01-20T23:11:02.573Z,100674.69
2023-01-20T23:13:29.572Z,100672.97
2023-01-20T23:15:56.054Z,100679.91
2023-01-20T23:18:23.234Z,100677.31
2023-01-20T23:20:51.164Z,100686.84
2023-01-20T23:23:18.923Z,100690.31
2023-01-20T23:25:45.338Z,100696.34
2023-01-20T23:28:12.434Z,100690.31
2023-01-20T23:30:39.271Z,100685.13
2023-01-20T23:33:06.148Z,100694.63
2023-01-20T23:35:39.596Z,100697.25
2023-01-20T23:38:06.948Z,100705.03
2023-01-20T23:40:33.973Z,100704.16
2023-01-20T23:43:00.443Z,100708.50
2023-01-20T23:45:28.591Z,100712.81
2023-01-20T23:47:55.057Z,100713.69
2023-01-20T23:50:21.437Z,100718.03
2023-01-20T23:52:47.872Z,100717.16
2023-01-20T23:55:14.391Z,100725.84
2023-01-20T23:57:40.729Z,100728.44
